sensor_id;sensor_type;location;lat;lon;timestamp;temperature;humidity
5705;DHT22;2877;48.238;11.160;2023-07-31T00:02:23;14.30;99.90
5705;DHT22;2877;48.238;11.160;2023-07-31T00:04:49;14.30;99.90
5705;DHT22;2877;48.238;11.160;2023-07-31T00:07:15;14.20;99.90
5705;DHT22;2877;48.238;11.160;2023-07-31T00:09:40;14.20;99.90
5705;DHT22;2877;48.238;11.160;2023-07-31T00:12:06;14.20;99.90
5705;DHT22;2877;48.238;11.160;2023-07-31T00:14:32;14.10;99.90
5705;DHT22;2877;48.238;11.160;2023-07-31T00:16:57;14.10;99.90
5705;DHT22;2877;48.238;11.160;2023-07-31T00:19:23;14.10;99.90
5705;DHT22;2877;48.238;11.160;2023-07-31T00:21:49;14.10;99.90
5705;DHT22;2877;48.238;11.160;2023-07-31T00:24:14;14.20;99.90
5705;DHT22;2877;48.238;11.160;2023-07-31T00:26:40;14.30;99.90
5705;DHT22;2877;48.238;11.160;2023-07-31T00:29:05;14.20;99.90
5705;DHT22;2877;48.238;11.160;2023-07-31T00:31:31;14.10;99.90
5705;DHT22;2877;48.238;11.160;2023-07-31T00:33:57;14.10;99.90
5705;DHT22;2877;48.238;11.160;2023-07-31T00:36:22;14.10;99.90
5705;DHT22;2877;48.238;11.160;2023-07-31T00:38:48;14.00;99.90
5705;DHT22;2877;48.238;11.160;2023-07-31T00:41:14;14.00;99.90
5705;DHT22;2877;48.238;11.160;2023-07-31T00:43:40;14.00;99.90
5705;DHT22;2877;48.238;11.160;2023-07-31T00:46:06;14.00;99.90
5705;DHT22;2877;48.238;11.160;2023-07-31T00:48:32;14.10;99.90
5705;DHT22;2877;48.238;11.160;2023-07-31T00:50:58;14.20;99.90
5705;DHT22;2877;48.238;11.160;2023-07-31T00:53:24;14.30;99.90
5705;DHT22;2877;48.238;11.160;2023-07-31T00:55:50;14.30;99.90
5705;DHT22;2877;48.238;11.160;2023-07-31T00:58:16;14.30;99.90
5705;DHT22;2877;48.238;11.160;2023-07-31T01:00:41;14.30;99.90
5705;DHT22;2877;48.238;11.160;2023-07-31T01:03:07;14.30;99.90
5705;DHT22;2877;48.238;11.160;2023-07-31T01:05:51;14.30;99.90
5705;DHT22;2877;48.238;11.160;2023-07-31T01:10:56;14.40;99.90
5705;DHT22;2877;48.238;11.160;2023-07-31T01:13:25;14.50;99.90
5705;DHT22;2877;48.238;11.160;2023-07-31T01:15:51;14.50;99.90
5705;DHT22;2877;48.238;11.160;2023-07-31T01:18:17;14.60;99.90
5705;DHT22;2877;48.238;11.160;2023-07-31T01:20:44;14.60;99.90
5705;DHT22;2877;48.238;11.160;2023-07-31T01:26:31;14.70;99.90
5705;DHT22;2877;48.238;11.160;2023-07-31T01:31:25;14.70;99.90
5705;DHT22;2877;48.238;11.160;2023-07-31T01:33:53;14.70;99.90
5705;DHT22;2877;48.238;11.160;2023-07-31T01:36:20;14.70;99.90
5705;DHT22;2877;48.238;11.160;2023-07-31T01:38:45;14.70;99.90
5705;DHT22;2877;48.238;11.160;2023-07-31T01:41:11;14.60;99.90
5705;DHT22;2877;48.238;11.160;2023-07-31T01:43:37;14.60;99.90
5705;DHT22;2877;48.238;11.160;2023-07-31T01:46:02;14.60;99.90
5705;DHT22;2877;48.238;11.160;2023-07-31T01:48:28;14.50;99.90
5705;DHT22;2877;48.238;11.160;2023-07-31T01:50:53;14.50;99.90
5705;DHT22;2877;48.238;11.160;2023-07-31T01:53:19;14.60;99.90
5705;DHT22;2877;48.238;11.160;2023-07-31T01:55:44;14.60;99.90
5705;DHT22;2877;48.238;11.160;2023-07-31T01:58:10;14.60;99.90
5705;DHT22;2877;48.238;11.160;2023-07-31T02:00:35;14.60;99.90
5705;DHT22;2877;48.238;11.160;2023-07-31T02:03:01;14.60;99.90
5705;DHT22;2877;48.238;11.160;2023-07-31T02:05:26;14.60;99.90
5705;DHT22;2877;48.238;11.160;2023-07-31T02:07:52;14.60;99.90
5705;DHT22;2877;48.238;11.160;2023-07-31T02:10:17;14.60;99.90
5705;DHT22;2877;48.238;11.160;2023-07-31T02:12:43;14.60;99.90
5705;DHT22;2877;48.238;11.160;2023-07-31T02:15:09;14.60;99.90
5705;DHT22;2877;48.238;11.160;2023-07-31T02:17:34;14.60;99.90
5705;DHT22;2877;48.238;11.160;2023-07-31T02:20:00;14.60;99.90
5705;DHT22;2877;48.238;11.160;2023-07-31T02:22:26;14.60;99.90
5705;DHT22;2877;48.238;11.160;2023-07-31T02:24:51;14.60;99.90
5705;DHT22;2877;48.238;11.160;2023-07-31T02:27:17;14.50;99.90
5705;DHT22;2877;48.238;11.160;2023-07-31T02:29:42;14.50;99.90
5705;DHT22;2877;48.238;11.160;2023-07-31T02:32:08;14.40;99.90
5705;DHT22;2877;48.238;11.160;2023-07-31T02:34:34;14.30;99.90
5705;DHT22;2877;48.238;11.160;2023-07-31T02:36:59;14.30;99.90
5705;DHT22;2877;48.238;11.160;2023-07-31T02:39:25;14.20;99.90
5705;DHT22;2877;48.238;11.160;2023-07-31T02:41:50;14.20;99.90
5705;DHT22;2877;48.238;11.160;2023-07-31T02:44:16;14.20;99.90
5705;DHT22;2877;48.238;11.160;2023-07-31T02:46:41;14.10;99.90
5705;DHT22;2877;48.238;11.160;2023-07-31T02:49:07;14.10;99.90
5705;DHT22;2877;48.238;11.160;2023-07-31T02:51:32;14.10;99.90
5705;DHT22;2877;48.238;11.160;2023-07-31T02:53:58;14.10;99.90
5705;DHT22;2877;48.238;11.160;2023-07-31T02:56:23;14.20;99.90
5705;DHT22;2877;48.238;11.160;2023-07-31T02:58:49;14.20;99.90
5705;DHT22;2877;48.238;11.160;2023-07-31T03:01:14;14.20;99.90
5705;DHT22;2877;48.238;11.160;2023-07-31T03:03:41;14.30;99.90
5705;DHT22;2877;48.238;11.160;2023-07-31T03:06:07;14.30;99.90
5705;DHT22;2877;48.238;11.160;2023-07-31T03:08:33;14.40;99.90
5705;DHT22;2877;48.238;11.160;2023-07-31T03:10:58;14.40;99.90
5705;DHT22;2877;48.238;11.160;2023-07-31T03:13:24;14.40;99.90
5705;DHT22;2877;48.238;11.160;2023-07-31T03:15:50;14.40;99.90
5705;DHT22;2877;48.238;11.160;2023-07-31T03:18:16;14.40;99.90
5705;DHT22;2877;48.238;11.160;2023-07-31T03:20:44;14.40;99.90
5705;DHT22;2877;48.238;11.160;2023-07-31T03:23:10;14.40;99.90
5705;DHT22;2877;48.238;11.160;2023-07-31T03:25:35;14.40;99.90
5705;DHT22;2877;48.238;11.160;2023-07-31T03:28:01;14.40;99.90
5705;DHT22;2877;48.238;11.160;2023-07-31T03:30:27;14.40;99.90
5705;DHT22;2877;48.238;11.160;2023-07-31T03:32:52;14.40;99.90
5705;DHT22;2877;48.238;11.160;2023-07-31T03:35:18;14.40;99.90
5705;DHT22;2877;48.238;11.160;2023-07-31T03:37:43;14.50;99.90
5705;DHT22;2877;48.238;11.160;2023-07-31T03:40:09;14.50;99.90
5705;DHT22;2877;48.238;11.160;2023-07-31T03:42:35;14.50;99.90
5705;DHT22;2877;48.238;11.160;2023-07-31T03:45:01;14.50;99.90
5705;DHT22;2877;48.238;11.160;2023-07-31T03:47:26;14.50;99.90
5705;DHT22;2877;48.238;11.160;2023-07-31T03:49:52;14.60;99.90
5705;DHT22;2877;48.238;11.160;2023-07-31T03:52:17;14.60;99.90
5705;DHT22;2877;48.238;11.160;2023-07-31T03:54:43;14.60;99.90
5705;DHT22;2877;48.238;11.160;2023-07-31T03:57:10;14.60;99.90
5705;DHT22;2877;48.238;11.160;2023-07-31T03:59:36;14.50;99.90
5705;DHT22;2877;48.238;11.160;2023-07-31T04:02:04;14.40;99.90
5705;DHT22;2877;48.238;11.160;2023-07-31T04:04:30;14.30;99.90
5705;DHT22;2877;48.238;11.160;2023-07-31T04:06:55;14.30;99.90
5705;DHT22;2877;48.238;11.160;2023-07-31T04:09:21;14.30;99.90
5705;DHT22;2877;48.238;11.160;2023-07-31T04:11:46;14.30;99.90
5705;DHT22;2877;48.238;11.160;2023-07-31T04:14:12;14.20;99.90
5705;DHT22;2877;48.238;11.160;2023-07-31T04:16:37;14.10;99.90
5705;DHT22;2877;48.238;11.160;2023-07-31T04:19:03;14.10;99.90
5705;DHT22;2877;48.238;11.160;2023-07-31T04:21:29;14.10;99.90
5705;DHT22;2877;48.238;11.160;2023-07-31T04:23:54;14.10;99.90
5705;DHT22;2877;48.238;11.160;2023-07-31T04:26:21;14.00;99.90
5705;DHT22;2877;48.238;11.160;2023-07-31T04:28:47;14.00;99.90
5705;DHT22;2877;48.238;11.160;2023-07-31T04:31:12;13.90;99.90
5705;DHT22;2877;48.238;11.160;2023-07-31T04:33:38;13.90;99.90
5705;DHT22;2877;48.238;11.160;2023-07-31T04:36:04;13.90;99.90
5705;DHT22;2877;48.238;11.160;2023-07-31T04:38:30;13.90;99.90
5705;DHT22;2877;48.238;11.160;2023-07-31T04:40:55;13.90;99.90
5705;DHT22;2877;48.238;11.160;2023-07-31T04:43:21;14.00;99.90
5705;DHT22;2877;48.238;11.160;2023-07-31T04:45:46;13.90;99.90
5705;DHT22;2877;48.238;11.160;2023-07-31T04:48:13;14.00;99.90
5705;DHT22;2877;48.238;11.160;2023-07-31T04:50:38;14.00;99.90
5705;DHT22;2877;48.238;11.160;2023-07-31T04:53:04;14.10;99.90
5705;DHT22;2877;48.238;11.160;2023-07-31T04:55:30;14.30;99.90
5705;DHT22;2877;48.238;11.160;2023-07-31T04:57:55;14.40;99.90
5705;DHT22;2877;48.238;11.160;2023-07-31T05:00:21;14.60;99.90
5705;DHT22;2877;48.238;11.160;2023-07-31T05:02:46;14.80;99.90
5705;DHT22;2877;48.238;11.160;2023-07-31T05:05:12;14.90;99.90
5705;DHT22;2877;48.238;11.160;2023-07-31T05:07:37;15.10;99.90
5705;DHT22;2877;48.238;11.160;2023-07-31T05:10:03;15.30;99.90
5705;DHT22;2877;48.238;11.160;2023-07-31T05:12:29;15.50;99.90
5705;DHT22;2877;48.238;11.160;2023-07-31T05:14:55;15.70;99.90
5705;DHT22;2877;48.238;11.160;2023-07-31T05:17:20;15.90;99.90
5705;DHT22;2877;48.238;11.160;2023-07-31T05:19:46;16.10;99.90
5705;DHT22;2877;48.238;11.160;2023-07-31T05:22:12;16.20;99.90
5705;DHT22;2877;48.238;11.160;2023-07-31T05:24:37;16.30;99.90
5705;DHT22;2877;48.238;11.160;2023-07-31T05:27:03;16.40;99.90
5705;DHT22;2877;48.238;11.160;2023-07-31T05:29:29;16.40;99.90
5705;DHT22;2877;48.238;11.160;2023-07-31T05:31:54;16.40;99.90
5705;DHT22;2877;48.238;11.160;2023-07-31T05:34:20;16.40;99.90
5705;DHT22;2877;48.238;11.160;2023-07-31T05:36:45;16.30;99.90
5705;DHT22;2877;48.238;11.160;2023-07-31T05:39:11;16.30;99.90
5705;DHT22;2877;48.238;11.160;2023-07-31T05:41:37;16.40;99.90
5705;DHT22;2877;48.238;11.160;2023-07-31T05:44:03;16.50;99.90
5705;DHT22;2877;48.238;11.160;2023-07-31T05:46:29;16.60;99.90
5705;DHT22;2877;48.238;11.160;2023-07-31T05:48:54;16.70;99.90
5705;DHT22;2877;48.238;11.160;2023-07-31T05:51:20;16.90;99.90
5705;DHT22;2877;48.238;11.160;2023-07-31T05:53:45;17.10;99.90
5705;DHT22;2877;48.238;11.160;2023-07-31T05:56:11;17.30;99.90
5705;DHT22;2877;48.238;11.160;2023-07-31T05:58:36;17.30;99.90
5705;DHT22;2877;48.238;11.160;2023-07-31T06:01:02;17.30;99.90
5705;DHT22;2877;48.238;11.160;2023-07-31T06:03:27;17.50;99.90
5705;DHT22;2877;48.238;11.160;2023-07-31T06:05:53;17.50;99.90
5705;DHT22;2877;48.238;11.160;2023-07-31T06:08:18;17.50;99.90
5705;DHT22;2877;48.238;11.160;2023-07-31T06:10:44;17.50;99.90
5705;DHT22;2877;48.238;11.160;2023-07-31T06:13:09;17.60;99.90
5705;DHT22;2877;48.238;11.160;2023-07-31T06:15:35;17.70;99.90
5705;DHT22;2877;48.238;11.160;2023-07-31T06:18:01;17.80;99.90
5705;DHT22;2877;48.238;11.160;2023-07-31T06:20:28;17.70;99.90
5705;DHT22;2877;48.238;11.160;2023-07-31T06:22:54;17.70;99.90
5705;DHT22;2877;48.238;11.160;2023-07-31T06:25:19;17.70;99.90
5705;DHT22;2877;48.238;11.160;2023-07-31T06:27:45;17.60;99.90
5705;DHT22;2877;48.238;11.160;2023-07-31T06:30:11;17.60;99.90
5705;DHT22;2877;48.238;11.160;2023-07-31T06:32:37;17.60;99.90
5705;DHT22;2877;48.238;11.160;2023-07-31T06:35:02;17.80;99.90
5705;DHT22;2877;48.238;11.160;2023-07-31T06:37:28;18.00;99.90
5705;DHT22;2877;48.238;11.160;2023-07-31T06:39:54;18.20;99.90
5705;DHT22;2877;48.238;11.160;2023-07-31T06:42:19;18.40;99.90
5705;DHT22;2877;48.238;11.160;2023-07-31T06:44:45;18.40;99.90
5705;DHT22;2877;48.238;11.160;2023-07-31T06:47:10;18.40;99.90
5705;DHT22;2877;48.238;11.160;2023-07-31T06:49:36;18.50;99.90
5705;DHT22;2877;48.238;11.160;2023-07-31T06:52:01;18.50;99.90
5705;DHT22;2877;48.238;11.160;2023-07-31T06:54:27;18.40;99.90
5705;DHT22;2877;48.238;11.160;2023-07-31T06:56:52;18.30;99.90
5705;DHT22;2877;48.238;11.160;2023-07-31T06:59:18;18.30;99.90
5705;DHT22;2877;48.238;11.160;2023-07-31T07:01:44;18.40;99.90
5705;DHT22;2877;48.238;11.160;2023-07-31T07:04:09;18.60;99.90
5705;DHT22;2877;48.238;11.160;2023-07-31T07:06:35;18.80;99.90
5705;DHT22;2877;48.238;11.160;2023-07-31T07:09:00;19.10;99.90
5705;DHT22;2877;48.238;11.160;2023-07-31T07:11:26;19.20;99.90
5705;DHT22;2877;48.238;11.160;2023-07-31T07:13:51;19.30;99.90
5705;DHT22;2877;48.238;11.160;2023-07-31T07:16:17;19.40;99.90
5705;DHT22;2877;48.238;11.160;2023-07-31T07:18:43;19.50;99.90
5705;DHT22;2877;48.238;11.160;2023-07-31T07:21:08;19.50;99.90
5705;DHT22;2877;48.238;11.160;2023-07-31T07:23:34;19.50;99.90
5705;DHT22;2877;48.238;11.160;2023-07-31T07:25:59;19.50;99.90
5705;DHT22;2877;48.238;11.160;2023-07-31T07:28:25;19.60;99.90
5705;DHT22;2877;48.238;11.160;2023-07-31T07:30:51;19.60;99.90
5705;DHT22;2877;48.238;11.160;2023-07-31T07:33:18;19.70;99.90
5705;DHT22;2877;48.238;11.160;2023-07-31T07:35:43;19.90;99.90
5705;DHT22;2877;48.238;11.160;2023-07-31T07:38:09;19.90;99.90
5705;DHT22;2877;48.238;11.160;2023-07-31T07:40:39;20.00;99.90
5705;DHT22;2877;48.238;11.160;2023-07-31T07:43:04;20.20;99.90
5705;DHT22;2877;48.238;11.160;2023-07-31T07:45:30;20.30;99.90
5705;DHT22;2877;48.238;11.160;2023-07-31T07:47:55;20.30;99.90
5705;DHT22;2877;48.238;11.160;2023-07-31T07:50:21;20.60;99.90
5705;DHT22;2877;48.238;11.160;2023-07-31T07:52:46;20.80;99.90
5705;DHT22;2877;48.238;11.160;2023-07-31T07:55:12;21.10;99.90
5705;DHT22;2877;48.238;11.160;2023-07-31T07:57:37;21.20;99.90
5705;DHT22;2877;48.238;11.160;2023-07-31T08:00:04;21.40;99.90
5705;DHT22;2877;48.238;11.160;2023-07-31T08:02:31;21.40;99.90
5705;DHT22;2877;48.238;11.160;2023-07-31T08:04:56;21.10;99.90
5705;DHT22;2877;48.238;11.160;2023-07-31T08:07:22;20.90;99.90
5705;DHT22;2877;48.238;11.160;2023-07-31T08:09:47;20.60;99.90
5705;DHT22;2877;48.238;11.160;2023-07-31T08:12:13;20.30;99.90
5705;DHT22;2877;48.238;11.160;2023-07-31T08:14:38;20.20;99.90
5705;DHT22;2877;48.238;11.160;2023-07-31T08:17:04;20.20;99.90
5705;DHT22;2877;48.238;11.160;2023-07-31T08:19:29;20.20;99.90
5705;DHT22;2877;48.238;11.160;2023-07-31T08:21:55;20.00;99.90
5705;DHT22;2877;48.238;11.160;2023-07-31T08:24:21;19.70;99.90
5705;DHT22;2877;48.238;11.160;2023-07-31T08:26:47;19.60;99.90
5705;DHT22;2877;48.238;11.160;2023-07-31T08:29:12;19.50;99.90
5705;DHT22;2877;48.238;11.160;2023-07-31T08:31:38;19.50;99.90
5705;DHT22;2877;48.238;11.160;2023-07-31T08:34:03;19.60;99.90
5705;DHT22;2877;48.238;11.160;2023-07-31T08:36:29;19.60;99.90
5705;DHT22;2877;48.238;11.160;2023-07-31T08:38:54;19.60;99.90
5705;DHT22;2877;48.238;11.160;2023-07-31T08:41:20;19.60;99.90
5705;DHT22;2877;48.238;11.160;2023-07-31T08:43:46;19.70;99.90
5705;DHT22;2877;48.238;11.160;2023-07-31T08:46:15;19.70;99.90
5705;DHT22;2877;48.238;11.160;2023-07-31T08:48:42;19.70;99.90
5705;DHT22;2877;48.238;11.160;2023-07-31T08:51:08;19.70;99.90
5705;DHT22;2877;48.238;11.160;2023-07-31T08:53:34;19.70;99.90
5705;DHT22;2877;48.238;11.160;2023-07-31T08:56:00;19.80;99.90
5705;DHT22;2877;48.238;11.160;2023-07-31T08:58:30;20.20;99.90
5705;DHT22;2877;48.238;11.160;2023-07-31T09:00:57;20.30;99.90
5705;DHT22;2877;48.238;11.160;2023-07-31T09:03:24;20.30;99.90
5705;DHT22;2877;48.238;11.160;2023-07-31T09:05:51;20.20;99.90
5705;DHT22;2877;48.238;11.160;2023-07-31T09:08:21;20.00;99.90
5705;DHT22;2877;48.238;11.160;2023-07-31T09:10:47;20.10;99.90
5705;DHT22;2877;48.238;11.160;2023-07-31T09:13:16;20.00;99.90
5705;DHT22;2877;48.238;11.160;2023-07-31T09:15:43;20.20;99.90
5705;DHT22;2877;48.238;11.160;2023-07-31T09:18:09;20.30;99.90
5705;DHT22;2877;48.238;11.160;2023-07-31T09:20:36;20.50;99.90
5705;DHT22;2877;48.238;11.160;2023-07-31T09:23:13;20.30;99.90
5705;DHT22;2877;48.238;11.160;2023-07-31T09:25:42;19.90;99.90
5705;DHT22;2877;48.238;11.160;2023-07-31T09:28:10;20.10;99.90
5705;DHT22;2877;48.238;11.160;2023-07-31T09:30:49;20.20;99.90
5705;DHT22;2877;48.238;11.160;2023-07-31T09:33:15;19.90;99.90
5705;DHT22;2877;48.238;11.160;2023-07-31T09:35:41;20.20;99.90
5705;DHT22;2877;48.238;11.160;2023-07-31T09:38:12;20.60;99.90
5705;DHT22;2877;48.238;11.160;2023-07-31T09:40:40;20.60;99.90
5705;DHT22;2877;48.238;11.160;2023-07-31T09:43:08;20.70;99.90
5705;DHT22;2877;48.238;11.160;2023-07-31T09:45:37;21.10;99.90
5705;DHT22;2877;48.238;11.160;2023-07-31T09:48:06;21.20;99.90
5705;DHT22;2877;48.238;11.160;2023-07-31T09:50:32;20.80;99.90
5705;DHT22;2877;48.238;11.160;2023-07-31T09:52:57;20.40;99.90
5705;DHT22;2877;48.238;11.160;2023-07-31T09:55:24;20.80;99.90
5705;DHT22;2877;48.238;11.160;2023-07-31T09:57:49;21.00;99.90
5705;DHT22;2877;48.238;11.160;2023-07-31T10:00:16;21.20;99.90
5705;DHT22;2877;48.238;11.160;2023-07-31T10:02:45;21.70;99.90
5705;DHT22;2877;48.238;11.160;2023-07-31T10:05:13;21.80;99.90
5705;DHT22;2877;48.238;11.160;2023-07-31T10:07:42;21.90;99.90
5705;DHT22;2877;48.238;11.160;2023-07-31T10:10:08;21.90;99.90
5705;DHT22;2877;48.238;11.160;2023-07-31T10:12:37;22.00;99.90
5705;DHT22;2877;48.238;11.160;2023-07-31T10:15:03;22.20;99.90
5705;DHT22;2877;48.238;11.160;2023-07-31T10:17:30;22.20;99.90
5705;DHT22;2877;48.238;11.160;2023-07-31T10:19:58;22.40;99.90
5705;DHT22;2877;48.238;11.160;2023-07-31T10:22:25;22.00;99.50
5705;DHT22;2877;48.238;11.160;2023-07-31T10:24:52;21.40;99.90
5705;DHT22;2877;48.238;11.160;2023-07-31T10:27:20;21.70;99.90
5705;DHT22;2877;48.238;11.160;2023-07-31T10:29:47;22.00;99.90
5705;DHT22;2877;48.238;11.160;2023-07-31T10:32:15;22.60;99.70
5705;DHT22;2877;48.238;11.160;2023-07-31T10:34:42;23.00;99.90
5705;DHT22;2877;48.238;11.160;2023-07-31T10:37:27;23.00;99.20
5705;DHT22;2877;48.238;11.160;2023-07-31T10:39:56;23.00;99.70
5705;DHT22;2877;48.238;11.160;2023-07-31T10:42:52;23.10;98.80
5705;DHT22;2877;48.238;11.160;2023-07-31T10:45:35;23.40;99.20
5705;DHT22;2877;48.238;11.160;2023-07-31T10:48:05;23.00;98.70
5705;DHT22;2877;48.238;11.160;2023-07-31T10:50:36;23.20;98.90
5705;DHT22;2877;48.238;11.160;2023-07-31T10:53:02;23.80;97.60
5705;DHT22;2877;48.238;11.160;2023-07-31T10:55:42;23.80;97.70
5705;DHT22;2877;48.238;11.160;2023-07-31T10:58:09;23.40;98.00
5705;DHT22;2877;48.238;11.160;2023-07-31T11:00:41;23.70;97.90
5705;DHT22;2877;48.238;11.160;2023-07-31T11:06:01;24.40;97.00
5705;DHT22;2877;48.238;11.160;2023-07-31T11:08:35;24.30;94.00
5705;DHT22;2877;48.238;11.160;2023-07-31T11:11:08;23.40;95.30
5705;DHT22;2877;48.238;11.160;2023-07-31T11:16:05;23.00;96.10
5705;DHT22;2877;48.238;11.160;2023-07-31T11:18:30;23.00;97.00
5705;DHT22;2877;48.238;11.160;2023-07-31T11:20:56;22.70;95.90
5705;DHT22;2877;48.238;11.160;2023-07-31T11:23:22;22.90;98.20
5705;DHT22;2877;48.238;11.160;2023-07-31T11:25:48;23.50;97.60
5705;DHT22;2877;48.238;11.160;2023-07-31T11:28:16;24.20;95.80
5705;DHT22;2877;48.238;11.160;2023-07-31T11:30:42;24.50;94.40
5705;DHT22;2877;48.238;11.160;2023-07-31T11:33:11;24.60;94.20
5705;DHT22;2877;48.238;11.160;2023-07-31T11:35:44;24.70;94.30
5705;DHT22;2877;48.238;11.160;2023-07-31T11:38:23;24.80;92.90
5705;DHT22;2877;48.238;11.160;2023-07-31T11:40:49;24.70;93.20
5705;DHT22;2877;48.238;11.160;2023-07-31T11:43:15;24.30;94.40
5705;DHT22;2877;48.238;11.160;2023-07-31T11:45:48;24.90;95.30
5705;DHT22;2877;48.238;11.160;2023-07-31T11:50:46;25.50;92.50
5705;DHT22;2877;48.238;11.160;2023-07-31T11:53:13;25.90;91.40
5705;DHT22;2877;48.238;11.160;2023-07-31T11:55:39;25.10;90.10
5705;DHT22;2877;48.238;11.160;2023-07-31T11:58:05;24.50;93.60
5705;DHT22;2877;48.238;11.160;2023-07-31T12:00:31;24.80;92.00
5705;DHT22;2877;48.238;11.160;2023-07-31T12:02:56;25.20;92.40
5705;DHT22;2877;48.238;11.160;2023-07-31T12:05:22;25.50;91.10
5705;DHT22;2877;48.238;11.160;2023-07-31T12:07:53;25.30;90.60
5705;DHT22;2877;48.238;11.160;2023-07-31T12:10:38;25.00;90.40
5705;DHT22;2877;48.238;11.160;2023-07-31T12:13:09;24.80;91.60
5705;DHT22;2877;48.238;11.160;2023-07-31T12:15:43;24.10;90.50
5705;DHT22;2877;48.238;11.160;2023-07-31T12:18:13;23.70;91.10
5705;DHT22;2877;48.238;11.160;2023-07-31T12:20:46;23.50;90.70
5705;DHT22;2877;48.238;11.160;2023-07-31T12:23:17;23.40;91.50
5705;DHT22;2877;48.238;11.160;2023-07-31T12:25:43;23.90;93.00
5705;DHT22;2877;48.238;11.160;2023-07-31T12:28:08;24.60;91.40
5705;DHT22;2877;48.238;11.160;2023-07-31T12:30:38;25.50;91.10
5705;DHT22;2877;48.238;11.160;2023-07-31T12:33:13;25.50;89.60
5705;DHT22;2877;48.238;11.160;2023-07-31T12:35:42;25.30;86.90
5705;DHT22;2877;48.238;11.160;2023-07-31T12:38:08;25.00;89.70
5705;DHT22;2877;48.238;11.160;2023-07-31T12:40:37;25.10;89.30
5705;DHT22;2877;48.238;11.160;2023-07-31T12:43:02;25.10;90.10
5705;DHT22;2877;48.238;11.160;2023-07-31T12:45:29;25.20;86.40
5705;DHT22;2877;48.238;11.160;2023-07-31T12:47:55;25.30;86.20
5705;DHT22;2877;48.238;11.160;2023-07-31T12:50:20;26.20;84.60
5705;DHT22;2877;48.238;11.160;2023-07-31T12:52:46;25.50;82.60
5705;DHT22;2877;48.238;11.160;2023-07-31T12:55:12;24.80;84.70
5705;DHT22;2877;48.238;11.160;2023-07-31T12:57:37;24.20;85.90
5705;DHT22;2877;48.238;11.160;2023-07-31T13:00:03;24.30;86.90
5705;DHT22;2877;48.238;11.160;2023-07-31T13:02:29;25.10;87.00
5705;DHT22;2877;48.238;11.160;2023-07-31T13:04:54;25.80;85.10
5705;DHT22;2877;48.238;11.160;2023-07-31T13:07:22;25.90;86.00
5705;DHT22;2877;48.238;11.160;2023-07-31T13:09:48;25.30;84.00
5705;DHT22;2877;48.238;11.160;2023-07-31T13:12:13;24.60;82.00
5705;DHT22;2877;48.238;11.160;2023-07-31T13:14:39;24.30;88.30
5705;DHT22;2877;48.238;11.160;2023-07-31T13:17:04;24.50;85.40
5705;DHT22;2877;48.238;11.160;2023-07-31T13:19:30;24.40;85.50
5705;DHT22;2877;48.238;11.160;2023-07-31T13:21:55;24.90;86.40
5705;DHT22;2877;48.238;11.160;2023-07-31T13:24:21;25.10;87.40
5705;DHT22;2877;48.238;11.160;2023-07-31T13:26:46;25.90;85.60
5705;DHT22;2877;48.238;11.160;2023-07-31T13:29:12;26.30;82.10
5705;DHT22;2877;48.238;11.160;2023-07-31T13:31:37;26.70;82.70
5705;DHT22;2877;48.238;11.160;2023-07-31T13:34:03;27.40;76.70
5705;DHT22;2877;48.238;11.160;2023-07-31T13:36:29;27.00;80.30
5705;DHT22;2877;48.238;11.160;2023-07-31T13:38:54;26.70;80.50
5705;DHT22;2877;48.238;11.160;2023-07-31T13:41:20;26.60;81.90
5705;DHT22;2877;48.238;11.160;2023-07-31T13:43:45;26.50;81.60
5705;DHT22;2877;48.238;11.160;2023-07-31T13:46:11;26.20;82.90
5705;DHT22;2877;48.238;11.160;2023-07-31T13:48:37;25.70;83.00
5705;DHT22;2877;48.238;11.160;2023-07-31T13:51:02;26.10;81.90
5705;DHT22;2877;48.238;11.160;2023-07-31T13:53:28;26.50;79.80
5705;DHT22;2877;48.238;11.160;2023-07-31T13:55:53;26.20;81.30
5705;DHT22;2877;48.238;11.160;2023-07-31T13:58:20;25.60;79.20
5705;DHT22;2877;48.238;11.160;2023-07-31T14:00:46;24.70;81.60
5705;DHT22;2877;48.238;11.160;2023-07-31T14:03:12;24.20;83.90
5705;DHT22;2877;48.238;11.160;2023-07-31T14:05:37;24.30;87.60
5705;DHT22;2877;48.238;11.160;2023-07-31T14:08:03;24.20;86.30
5705;DHT22;2877;48.238;11.160;2023-07-31T14:10:29;23.90;85.50
5705;DHT22;2877;48.238;11.160;2023-07-31T14:12:54;23.80;86.10
5705;DHT22;2877;48.238;11.160;2023-07-31T14:15:20;24.60;84.50
5705;DHT22;2877;48.238;11.160;2023-07-31T14:17:45;25.30;82.70
5705;DHT22;2877;48.238;11.160;2023-07-31T14:20:11;25.60;80.60
5705;DHT22;2877;48.238;11.160;2023-07-31T14:22:37;25.80;80.00
5705;DHT22;2877;48.238;11.160;2023-07-31T14:25:03;26.10;79.30
5705;DHT22;2877;48.238;11.160;2023-07-31T14:27:29;25.40;81.50
5705;DHT22;2877;48.238;11.160;2023-07-31T14:29:55;25.50;80.40
5705;DHT22;2877;48.238;11.160;2023-07-31T14:32:24;25.70;81.40
5705;DHT22;2877;48.238;11.160;2023-07-31T14:34:51;25.80;78.30
5705;DHT22;2877;48.238;11.160;2023-07-31T14:37:16;24.80;79.20
5705;DHT22;2877;48.238;11.160;2023-07-31T14:39:42;24.30;80.80
5705;DHT22;2877;48.238;11.160;2023-07-31T14:42:08;24.00;82.30
5705;DHT22;2877;48.238;11.160;2023-07-31T14:44:34;23.40;83.40
5705;DHT22;2877;48.238;11.160;2023-07-31T14:46:59;22.90;84.30
5705;DHT22;2877;48.238;11.160;2023-07-31T14:49:25;22.50;88.50
5705;DHT22;2877;48.238;11.160;2023-07-31T14:51:52;21.50;92.70
5705;DHT22;2877;48.238;11.160;2023-07-31T14:54:18;20.90;94.00
5705;DHT22;2877;48.238;11.160;2023-07-31T14:56:43;20.50;95.00
5705;DHT22;2877;48.238;11.160;2023-07-31T14:59:09;20.70;96.90
5705;DHT22;2877;48.238;11.160;2023-07-31T15:01:35;21.00;95.60
5705;DHT22;2877;48.238;11.160;2023-07-31T15:04:00;21.10;96.10
5705;DHT22;2877;48.238;11.160;2023-07-31T15:06:26;21.10;96.60
5705;DHT22;2877;48.238;11.160;2023-07-31T15:08:52;21.20;95.50
5705;DHT22;2877;48.238;11.160;2023-07-31T15:11:17;21.20;95.10
5705;DHT22;2877;48.238;11.160;2023-07-31T15:13:44;21.00;95.80
5705;DHT22;2877;48.238;11.160;2023-07-31T15:16:09;21.00;96.10
5705;DHT22;2877;48.238;11.160;2023-07-31T15:18:35;20.90;97.20
5705;DHT22;2877;48.238;11.160;2023-07-31T15:21:00;20.70;97.90
5705;DHT22;2877;48.238;11.160;2023-07-31T15:23:26;20.60;99.10
5705;DHT22;2877;48.238;11.160;2023-07-31T15:25:52;20.50;99.90
5705;DHT22;2877;48.238;11.160;2023-07-31T15:28:18;20.50;99.90
5705;DHT22;2877;48.238;11.160;2023-07-31T15:30:44;20.50;99.90
5705;DHT22;2877;48.238;11.160;2023-07-31T15:33:09;20.40;99.90
5705;DHT22;2877;48.238;11.160;2023-07-31T15:35:35;20.40;99.90
5705;DHT22;2877;48.238;11.160;2023-07-31T15:38:00;20.30;99.90
5705;DHT22;2877;48.238;11.160;2023-07-31T15:40:26;20.40;99.90
5705;DHT22;2877;48.238;11.160;2023-07-31T15:42:52;20.60;99.90
5705;DHT22;2877;48.238;11.160;2023-07-31T15:45:17;20.70;99.90
5705;DHT22;2877;48.238;11.160;2023-07-31T15:47:43;20.80;99.90
5705;DHT22;2877;48.238;11.160;2023-07-31T15:50:09;20.70;99.90
5705;DHT22;2877;48.238;11.160;2023-07-31T15:52:34;20.80;99.90
5705;DHT22;2877;48.238;11.160;2023-07-31T15:55:00;20.90;99.90
5705;DHT22;2877;48.238;11.160;2023-07-31T15:57:25;20.80;99.90